^^
Station Historical Data
Daily Summary for July 1, 2017 Units:  Metric    English   Both
« Previous Day
Next Day »
Daily Weekly Monthly Yearly Custom
  High: Low: Average:
Temperature: 21.8 °C 1.7 °C 8.9 °C
Dew Point: 3.4 °C -4.6 °C -0.3 °C
Humidity: 79% 23% 56%
Wind Speed: 19.5km/h 0km/h 1.1km/h
Wind Gust: 24.1km/h - -
Wind- - West
Pressure: 1022.9 hPa 1018.2 hPa -
Precipitation: 0 mm    
Historical Graphs
 
 
Tabular Data for July 1, 2017
Time Temperature Dew Point Pressure Wind Wind Speed Wind Gust Humidity Rainfall Rate (Hourly) solar Conditions
00:04 7.3 °C 2 °C 1021.6 hPa Calm     69% 0 mm 0.0 W/m2
00:16 7 °C 1.7 °C 1021.6 hPa Calm     69% 0 mm 0.0 W/m2
00:21 6.8 °C 1.7 °C 1021.6 hPa SSW 6.4 km/h 9.7 km/h 70% 0 mm 0.0 W/m2
00:26 6.9 °C 2 °C 1021.2 hPa SSW 7.9 km/h 11.3 km/h 71% 0 mm 0.0 W/m2
00:31 7.2 °C 2.5 °C 1021.6 hPa SSW 3.2 km/h 9.7 km/h 72% 0 mm 0.0 W/m2
00:36 7.4 °C 2.5 °C 1021.2 hPa Calm     71% 0 mm 0.0 W/m2
00:41 7.5 °C 2.6 °C 1021.2 hPa Calm     71% 0 mm 0.0 W/m2
00:51 7.1 °C 2 °C 1021.2 hPa Calm     70% 0 mm 0.0 W/m2
00:57 6.9 °C 2 °C 1021.2 hPa Calm     71% 0 mm 0.0 W/m2
01:02 6.8 °C 1.7 °C 1021.2 hPa Calm     70% 0 mm 0.0 W/m2
01:07 6.5 °C 1.6 °C 1021.2 hPa Calm     71% 0 mm 0.0 W/m2
01:12 6.2 °C 1.5 °C 1021.2 hPa Calm     72% 0 mm 0.0 W/m2
01:17 5.9 °C 1 °C 1021.2 hPa Calm     71% 0 mm 0.0 W/m2
01:22 5.6 °C 1.5 °C 1021.2 hPa Calm     75% 0 mm 0.0 W/m2
01:27 5.6 °C 1.5 °C 1021.2 hPa Calm     75% 0 mm 0.0 W/m2
01:32 5.6 °C 1.3 °C 1021.2 hPa Calm     74% 0 mm 0.0 W/m2
01:38 5.6 °C 1.7 °C 1021.2 hPa Calm     76% 0 mm 0.0 W/m2
01:43 6.1 °C 1.8 °C 1021.2 hPa Calm     74% 0 mm 0.0 W/m2
01:48 6.2 °C 1.7 °C 1021.2 hPa Calm     73% 0 mm 0.0 W/m2
01:54 6.3 °C 1.4 °C 1021.2 hPa Calm     71% 0 mm 0.0 W/m2
02:04 6.3 °C 1.2 °C 1021.2 hPa Calm     70% 0 mm 0.0 W/m2
02:09 6.1 °C 1.2 °C 1021.2 hPa Calm     71% 0 mm 0.0 W/m2
02:19 5.6 °C 1.1 °C 1021.2 hPa Calm     73% 0 mm 0.0 W/m2
02:24 5.4 °C 0.9 °C 1021.2 hPa Calm     73% 0 mm 0.0 W/m2
02:29 5.3 °C 1 °C 1021.2 hPa Calm     74% 0 mm 0.0 W/m2
02:34 5.1 °C 0.8 °C 1021.2 hPa Calm     74% 0 mm 0.0 W/m2
02:40 5.1 °C 1 °C 1020.9 hPa Calm     75% 0 mm 0.0 W/m2
02:45 5.1 °C 0.8 °C 1021.2 hPa Calm     74% 0 mm 0.0 W/m2
02:55 4.8 °C 0.9 °C 1021.2 hPa Calm     76% 0 mm 0.0 W/m2
03:05 4.8 °C 0.9 °C 1020.9 hPa Calm     76% 0 mm 0.0 W/m2
03:10 4.7 °C 0.8 °C 1020.9 hPa Calm     76% 0 mm 0.0 W/m2
03:16 4.5 °C 0.6 °C 1020.9 hPa Calm     76% 0 mm 0.0 W/m2
03:21 4.4 °C 0.7 °C 1020.9 hPa Calm     77% 0 mm 0.0 W/m2
03:26 4.3 °C 0.4 °C 1020.9 hPa Calm     76% 0 mm 0.0 W/m2
03:31 4.2 °C 0.5 °C 1020.9 hPa Calm     77% 0 mm 0.0 W/m2
03:36 4.2 °C 0 °C 1020.9 hPa Calm     74% 0 mm 0.0 W/m2
03:42 4 °C 0.2 °C 1020.9 hPa Calm     76% 0 mm 0.0 W/m2
03:47 3.8 °C -0.2 °C 1020.9 hPa Calm     75% 0 mm 0.0 W/m2
03:53 3.6 °C -0.1 °C 1020.9 hPa Calm     77% 0 mm 0.0 W/m2
03:58 3.8 °C 0.3 °C 1020.5 hPa Calm     78% 0 mm 0.0 W/m2
04:03 3.9 °C 0.4 °C 1020.5 hPa Calm     78% 0 mm 0.0 W/m2
04:08 4 °C 0.5 °C 1020.9 hPa Calm     78% 0 mm 0.0 W/m2
04:14 3.9 °C 0.1 °C 1020.9 hPa Calm     76% 0 mm 0.0 W/m2
04:24 3.7 °C 0 °C 1020.9 hPa Calm     77% 0 mm 0.0 W/m2
04:34 3.5 °C -0.2 °C 1021.2 hPa Calm     77% 0 mm 0.0 W/m2
04:44 3.2 °C -0.4 °C 1021.2 hPa Calm     77% 0 mm 0.0 W/m2
04:49 3.1 °C -0.5 °C 1021.2 hPa Calm     77% 0 mm 0.0 W/m2
04:54 3.1 °C -0.2 °C 1021.2 hPa Calm     79% 0 mm 0.0 W/m2
04:59 3 °C -0.5 °C 1021.6 hPa Calm     78% 0 mm 0.0 W/m2
05:04 2.9 °C -0.7 °C 1021.6 hPa Calm     77% 0 mm 0.0 W/m2
05:09 2.8 °C -1 °C 1021.2 hPa Calm     76% 0 mm 0.0 W/m2
05:15 2.7 °C -1.3 °C 1021.2 hPa Calm     75% 0 mm 0.0 W/m2
05:20 2.7 °C -1.5 °C 1021.6 hPa Calm     74% 0 mm 0.0 W/m2
05:25 2.6 °C -1.4 °C 1021.6 hPa Calm     75% 0 mm 0.0 W/m2
05:30 2.6 °C -1.2 °C 1021.6 hPa Calm     76% 0 mm 0.0 W/m2
05:35 2.7 °C -0.8 °C 1021.6 hPa Calm     78% 0 mm 0.0 W/m2
05:40 2.8 °C -1.2 °C 1021.6 hPa Calm     75% 0 mm 0.0 W/m2
05:46 2.8 °C -1.4 °C 1021.6 hPa Calm     74% 0 mm 0.0 W/m2
05:51 2.9 °C -1.3 °C 1021.6 hPa Calm     74% 0 mm 0.0 W/m2
06:00 2.8 °C -1.4 °C 1021.9 hPa Calm     74% 0 mm 0.0 W/m2
06:07 2.7 °C -1.7 °C 1021.9 hPa Calm     73% 0 mm 0.0 W/m2
06:16 2.3 °C -2.6 °C 1021.9 hPa Calm     70% 0 mm 0.0 W/m2
06:22 2.1 °C -3 °C 1022.2 hPa Calm     69% 0 mm 0.0 W/m2
06:27 1.9 °C -3 °C 1022.2 hPa Calm     70% 0 mm 0.0 W/m2
06:32 1.7 °C -2.8 °C 1022.2 hPa Calm     72% 0 mm 0.0 W/m2
06:37 1.7 °C -2.6 °C 1022.2 hPa Calm     73% 0 mm 0.0 W/m2
06:42 1.7 °C -2.6 °C 1022.2 hPa Calm     73% 0 mm 5.0 W/m2
06:47 1.8 °C -2.7 °C 1022.2 hPa Calm     72% 0 mm 7.0 W/m2
06:53 2.1 °C -2.2 °C 1022.2 hPa Calm     73% 0 mm 11.0 W/m2
07:03 2.6 °C -1.9 °C 1022.6 hPa Calm     72% 0 mm 14.0 W/m2
07:08 2.7 °C -1.8 °C 1022.6 hPa Calm     72% 0 mm 16.0 W/m2
07:14 2.9 °C -1.5 °C 1022.6 hPa Calm     73% 0 mm 18.0 W/m2
07:19 3.1 °C -1.5 °C 1022.6 hPa Calm     72% 0 mm 19.0 W/m2
07:31 3.9 °C -0.1 °C 1022.6 hPa Calm     75% 0 mm 62.0 W/m2
07:42 5.1 °C 0.8 °C 1022.6 hPa SSW 4.7 km/h 9.7 km/h 74% 0 mm 116.0 W/m2
07:52 6.2 °C 1.1 °C 1022.6 hPa Calm     70% 0 mm 153.0 W/m2
08:05 7.9 °C 1.3 °C 1022.9 hPa Calm     63% 0 mm 209.0 W/m2
08:11 8.5 °C 1.4 °C 1022.9 hPa Calm     61% 0 mm 227.0 W/m2
08:16 8.9 °C 1.3 °C 1022.9 hPa Calm     59% 0 mm 239.0 W/m2
08:26 9.8 °C 1.7 °C 1022.9 hPa SSW 1.4 km/h 8 km/h 57% 0 mm 269.0 W/m2
08:33 10.1 °C 1.7 °C 1022.9 hPa SSW 6.4 km/h 11.3 km/h 56% 0 mm 283.0 W/m2
08:46 10.8 °C 2.1 °C 1022.9 hPa Calm   11.3 km/h 55% 0 mm 309.0 W/m2
09:00 11.7 °C 2.4 °C 1022.9 hPa Calm   8 km/h 53% 0 mm 350.0 W/m2
09:10 12.3 °C 2.7 °C 1022.9 hPa Calm     52% 0 mm 373.0 W/m2
09:20 13 °C 3.4 °C 1022.9 hPa Calm     52% 0 mm 399.0 W/m2
09:30 13.5 °C 2.7 °C 1022.9 hPa Calm   3.2 km/h 48% 0 mm 422.0 W/m2
09:40 14 °C 2.6 °C 1022.9 hPa Calm   4.8 km/h 46% 0 mm 441.0 W/m2
09:51 14.3 °C 2.5 °C 1022.9 hPa Calm     45% 0 mm 461.0 W/m2
10:17 15.1 °C 2.6 °C 1022.9 hPa Calm   4.8 km/h 43% 0 mm 508.0 W/m2
10:32 15.5 °C 2.3 °C 1022.6 hPa SSW 3.2 km/h 12.9 km/h 41% 0 mm 531.0 W/m2
10:41 15.9 °C 2.7 °C 1022.6 hPa Calm   8 km/h 41% 0 mm 543.0 W/m2
10:51 15.9 °C 2.3 °C 1022.2 hPa SSW 3.2 km/h 9.7 km/h 40% 0 mm 555.0 W/m2
11:10 16.7 °C 1.9 °C 1021.9 hPa WSW 6.4 km/h 14.5 km/h 37% 0 mm 571.0 W/m2
11:20 17 °C 1.8 °C 1021.9 hPa West 7.9 km/h 16.1 km/h 36% 0 mm 578.0 W/m2
11:28 17.3 °C 1.7 °C 1021.6 hPa Calm   17.7 km/h 35% 0 mm 584.0 W/m2
11:45 17.8 °C 1.3 °C 1021.2 hPa WNW 13 km/h 19.3 km/h 33% 0 mm 587.0 W/m2
11:53 18.3 °C 1.3 °C 1021.2 hPa WNW 9.7 km/h 19.3 km/h 32% 0 mm 589.0 W/m2
11:59 18.6 °C 1.1 °C 1020.9 hPa WNW 4.7 km/h 16.1 km/h 31% 0 mm 587.0 W/m2
12:05 18.6 °C 1.1 °C 1020.9 hPa WNW 6.4 km/h 16.1 km/h 31% 0 mm 587.0 W/m2
12:23 19.1 °C 0.6 °C 1020.5 hPa WNW 1.4 km/h 17.7 km/h 29% 0 mm 582.0 W/m2
12:36 19.3 °C 0.8 °C 1020.2 hPa NW 3.2 km/h 17.7 km/h 29% 0 mm 573.0 W/m2
12:48 19.6 °C 0.1 °C 1019.9 hPa NW 11.1 km/h 24.1 km/h 27% 0 mm 566.0 W/m2
12:57 19.8 °C 0.3 °C 1019.5 hPa NW 6.4 km/h 20.9 km/h 27% 0 mm 559.0 W/m2
13:07 20.1 °C 0 °C 1019.5 hPa NNW 3.2 km/h 17.7 km/h 26% 0 mm 547.0 W/m2
13:33 20.7 °C 0 °C 1019.2 hPa NNW 3.2 km/h 20.9 km/h 25% 0 mm 510.0 W/m2
13:45 20.8 °C 0 °C 1019.2 hPa NNW 9.7 km/h 19.3 km/h 25% 0 mm 494.0 W/m2
13:54 21 °C 0.2 °C 1019.2 hPa NNW 3.2 km/h 22.5 km/h 25% 0 mm 475.0 W/m2
13:59 21.1 °C -0.3 °C 1019.2 hPa NNW 1.4 km/h 14.5 km/h 24% 0 mm 468.0 W/m2
14:05 21.2 °C -0.2 °C 1019.2 hPa NNW 6.4 km/h 14.5 km/h 24% 0 mm 459.0 W/m2
14:09 21.4 °C 0 °C 1018.8 hPa Calm   6.4 km/h 24% 0 mm 450.0 W/m2
14:14 21.1 °C -0.3 °C 1018.8 hPa NNW 6.4 km/h 20.9 km/h 24% 0 mm 439.0 W/m2
14:20 21.2 °C -0.2 °C 1018.8 hPa NNW 19.5 km/h 20.9 km/h 24% 0 mm 427.0 W/m2
15:02 21.7 °C 0.2 °C 1018.5 hPa Calm   14.5 km/h 24% 0 mm 336.0 W/m2
15:12 21.8 °C -0.3 °C 1018.2 hPa Calm   12.9 km/h 23% 0 mm 304.0 W/m2
18:40 15.2 °C -2.3 °C 1018.2 hPa Calm     30% 0 mm 0.0 W/m2
18:52 14.7 °C -2.3 °C 1018.2 hPa Calm     31% 0 mm 0.0 W/m2
19:03 14.4 °C -2.5 °C 1018.2 hPa Calm     31% 0 mm 0.0 W/m2
19:15 14.1 °C -2.4 °C 1018.2 hPa Calm     32% 0 mm 0.0 W/m2
20:01 13 °C -2.9 °C 1018.2 hPa Calm     33% 0 mm 0.0 W/m2
20:10 12.9 °C -3 °C 1018.5 hPa Calm     33% 0 mm 0.0 W/m2
20:20 12.5 °C -2.9 °C 1018.5 hPa Calm     34% 0 mm 0.0 W/m2
20:31 12.7 °C -3.2 °C 1018.5 hPa Calm     33% 0 mm 0.0 W/m2
20:40 11.8 °C -4 °C 1018.5 hPa Calm     33% 0 mm 0.0 W/m2
20:51 11.1 °C -3.8 °C 1018.5 hPa Calm     35% 0 mm 0.0 W/m2
21:01 10.7 °C -3.8 °C 1018.5 hPa Calm     36% 0 mm 0.0 W/m2
21:13 10.6 °C -3.9 °C 1018.8 hPa Calm     36% 0 mm 0.0 W/m2
21:21 10.1 °C -3.9 °C 1018.8 hPa Calm     37% 0 mm 0.0 W/m2
21:29 9.8 °C -4.6 °C 1018.8 hPa Calm     36% 0 mm 0.0 W/m2
21:35 9.6 °C -4 °C 1018.8 hPa Calm     38% 0 mm 0.0 W/m2
21:40 9.5 °C -4.1 °C 1018.8 hPa Calm     38% 0 mm 0.0 W/m2
21:51 9.1 °C -4.5 °C 1018.8 hPa Calm     38% 0 mm 0.0 W/m2
21:56 9.1 °C -3.5 °C 1018.8 hPa Calm     41% 0 mm 0.0 W/m2
22:02 9.1 °C -3.1 °C 1018.8 hPa Calm     42% 0 mm 0.0 W/m2
22:11 9.4 °C -2.2 °C 1018.8 hPa Calm     44% 0 mm 0.0 W/m2
22:22 10.2 °C -2.5 °C 1019.2 hPa Calm     41% 0 mm 0.0 W/m2
22:32 10.1 °C -2.2 °C 1019.2 hPa Calm     42% 0 mm 0.0 W/m2
22:37 10 °C -2.3 °C 1019.2 hPa Calm     42% 0 mm 0.0 W/m2
22:43 9.9 °C -2.4 °C 1019.2 hPa Calm     42% 0 mm 0.0 W/m2
22:48 9.8 °C -2.5 °C 1019.2 hPa Calm     42% 0 mm 0.0 W/m2
22:53 9.6 °C -2.4 °C 1018.8 hPa Calm     43% 0 mm 0.0 W/m2
22:58 9.4 °C -2.2 °C 1018.8 hPa Calm     44% 0 mm 0.0 W/m2
23:03 9.2 °C -2.1 °C 1018.8 hPa Calm     45% 0 mm 0.0 W/m2
23:13 9.1 °C -1.9 °C 1019.2 hPa Calm     46% 0 mm 0.0 W/m2
23:19 8.9 °C -2.1 °C 1019.2 hPa Calm     46% 0 mm 0.0 W/m2
23:24 8.7 °C -2.6 °C 1019.2 hPa Calm     45% 0 mm 0.0 W/m2
23:30 8.6 °C -2.7 °C 1019.2 hPa Calm     45% 0 mm 0.0 W/m2
23:35 8.5 °C -2.5 °C 1019.2 hPa Calm     46% 0 mm 0.0 W/m2
23:45 8.2 °C -2.4 °C 1019.2 hPa Calm     47% 0 mm 0.0 W/m2
23:50 8.1 °C -2.3 °C 1019.2 hPa Calm     48% 0 mm 0.0 W/m2
23:56 8.3 °C -2.9 °C 1019.5 hPa Calm     45% 0 mm 0.0 W/m2
Canyon Roadhouse, Fishriver Canyon, Namibia
Compliments of Weather Underground - 2.5 mb